MMF54 EHEH-ETNW
Flight info
| Callsign | MMF54 |
|---|---|
| Flight time | 0h 32m |
| Altitude | 15000 |
| Route | VELNI Y869 SUMOP L179 OSNAD M170 ZEPHE DCT IPKAP |
| Aircraft | A339/H-SADE1E2E3GHIJ3J5M1P2RWXY/LB2D1 |
Departure
| Time | 2026-05-05 11:47 |
|---|---|
| Airport | Eindhoven Airport (EHEH) |
Arrival
| Time | 2026-05-05 12:19 |
|---|---|
| Airport | Wunstorf Air Base (ETNW) |
| Time | Latitude | Longitude | Altitude | Speed | Heading |
|---|---|---|---|---|---|
| 2026-05-05 11:02 | 51.45235 | 5.38348 | 85 ft | 0 kts | 125° |
| 2026-05-05 11:17 | 51.45235 | 5.38347 | 87 ft | 2 kts | 125° |
| 2026-05-05 11:17 | 51.45246 | 5.38323 | 86 ft | 3 kts | 125° |
| 2026-05-05 11:18 | 51.45257 | 5.38296 | 85 ft | 3 kts | 103° |
| 2026-05-05 11:18 | 51.45258 | 5.38269 | 85 ft | 0 kts | 83° |
| 2026-05-05 11:18 | 51.45258 | 5.38266 | 85 ft | 0 kts | 83° |
| 2026-05-05 11:19 | 51.45257 | 5.38251 | 85 ft | 0 kts | 83° |
| 2026-05-05 11:19 | 51.45257 | 5.38250 | 85 ft | 0 kts | 83° |
| 2026-05-05 11:23 | 51.45258 | 5.38253 | 80 ft | 2 kts | 80° |
| 2026-05-05 11:23 | 51.45270 | 5.38285 | 86 ft | 3 kts | 52° |
| 2026-05-05 11:23 | 51.45306 | 5.38329 | 84 ft | 8 kts | 36° |
| 2026-05-05 11:24 | 51.45365 | 5.38389 | 82 ft | 10 kts | 26° |
| 2026-05-05 11:24 | 51.45400 | 5.38393 | 73 ft | 4 kts | 349° |
| 2026-05-05 11:24 | 51.45417 | 5.38372 | 70 ft | 7 kts | 320° |
| 2026-05-05 11:24 | 51.45446 | 5.38314 | 68 ft | 8 kts | 306° |
| 2026-05-05 11:25 | 51.45479 | 5.38238 | 68 ft | 0 kts | 306° |
| 2026-05-05 11:25 | 51.45235 | 5.38348 | 81 ft | 0 kts | 125° |
| 2026-05-05 11:35 | 51.45244 | 5.38328 | 86 ft | 2 kts | 125° |
| 2026-05-05 11:35 | 51.45253 | 5.38306 | 84 ft | 2 kts | 125° |
| 2026-05-05 11:35 | 51.45259 | 5.38293 | 85 ft | 0 kts | 125° |
| 2026-05-05 11:39 | 51.45257 | 5.38308 | 85 ft | 1 kts | 105° |
| 2026-05-05 11:39 | 51.45262 | 5.38342 | 82 ft | 5 kts | 72° |
| 2026-05-05 11:39 | 51.45285 | 5.38370 | 82 ft | 3 kts | 19° |
| 2026-05-05 11:39 | 51.45324 | 5.38384 | 82 ft | 6 kts | 17° |
| 2026-05-05 11:40 | 51.45360 | 5.38401 | 81 ft | 7 kts | 12° |
| 2026-05-05 11:40 | 51.45406 | 5.38395 | 71 ft | 4 kts | 338° |
| 2026-05-05 11:40 | 51.45431 | 5.38348 | 72 ft | 9 kts | 305° |
| 2026-05-05 11:40 | 51.45475 | 5.38245 | 68 ft | 11 kts | 305° |
| 2026-05-05 11:41 | 51.45489 | 5.38214 | 70 ft | 0 kts | 306° |
| 2026-05-05 11:41 | 51.45492 | 5.38208 | 68 ft | 7 kts | 306° |
| 2026-05-05 11:41 | 51.45548 | 5.38082 | 86 ft | 20 kts | 305° |
| 2026-05-05 11:42 | 51.45606 | 5.37950 | 86 ft | 7 kts | 304° |
| 2026-05-05 11:42 | 51.45616 | 5.37904 | 84 ft | 3 kts | 281° |
| 2026-05-05 11:42 | 51.45614 | 5.37864 | 83 ft | 7 kts | 260° |
| 2026-05-05 11:42 | 51.45584 | 5.37811 | 87 ft | 16 kts | 218° |
| 2026-05-05 11:43 | 51.45414 | 5.37622 | 89 ft | 37 kts | 215° |
| 2026-05-05 11:43 | 51.45209 | 5.37390 | 87 ft | 34 kts | 215° |
| 2026-05-05 11:43 | 51.45027 | 5.37188 | 89 ft | 29 kts | 215° |
| 2026-05-05 11:43 | 51.44852 | 5.36990 | 91 ft | 34 kts | 214° |
| 2026-05-05 11:44 | 51.44643 | 5.36756 | 87 ft | 40 kts | 214° |
| 2026-05-05 11:44 | 51.44405 | 5.36491 | 85 ft | 43 kts | 215° |
| 2026-05-05 11:44 | 51.44177 | 5.36234 | 90 ft | 37 kts | 214° |
| 2026-05-05 11:44 | 51.44035 | 5.36081 | 88 ft | 12 kts | 207° |
| 2026-05-05 11:45 | 51.43993 | 5.36083 | 86 ft | 6 kts | 160° |
| 2026-05-05 11:45 | 51.43965 | 5.36122 | 88 ft | 7 kts | 134° |
| 2026-05-05 11:45 | 51.43940 | 5.36180 | 87 ft | 5 kts | 116° |
| 2026-05-05 11:45 | 51.43940 | 5.36231 | 86 ft | 3 kts | 73° |
| 2026-05-05 11:46 | 51.43959 | 5.36272 | 87 ft | 4 kts | 40° |
| 2026-05-05 11:46 | 51.43966 | 5.36280 | 88 ft | 0 kts | 36° |
| 2026-05-05 11:46 | 51.44043 | 5.36368 | 90 ft | 45 kts | 35° |
| 2026-05-05 11:46 | 51.44530 | 5.36910 | 86 ft | 122 kts | 35° |
| 2026-05-05 11:47 | 51.45397 | 5.37864 | 268 ft | 170 kts | 34° |
| 2026-05-05 11:47 | 51.46435 | 5.39025 | 834 ft | 199 kts | 35° |
| 2026-05-05 11:47 | 51.47623 | 5.40377 | 1521 ft | 217 kts | 36° |
| 2026-05-05 11:47 | 51.48888 | 5.41915 | 2010 ft | 242 kts | 42° |
| 2026-05-05 11:48 | 51.50040 | 5.46880 | 2159 ft | 249 kts | 87° |
| 2026-05-05 11:48 | 51.49988 | 5.49643 | 2890 ft | 248 kts | 91° |
| 2026-05-05 11:48 | 51.49849 | 5.52429 | 3622 ft | 252 kts | 94° |
| 2026-05-05 11:49 | 51.49646 | 5.55301 | 3955 ft | 268 kts | 96° |
| 2026-05-05 11:49 | 51.49362 | 5.58216 | 4859 ft | 261 kts | 99° |
| 2026-05-05 11:49 | 51.49029 | 5.61099 | 5549 ft | 264 kts | 99° |
| 2026-05-05 11:49 | 51.48869 | 5.64049 | 6253 ft | 267 kts | 92° |
| 2026-05-05 11:50 | 51.48861 | 5.66030 | 6705 ft | 269 kts | 89° |
| 2026-05-05 11:50 | 51.48962 | 5.70027 | 7596 ft | 273 kts | 86° |
| 2026-05-05 11:50 | 51.49053 | 5.72082 | 8082 ft | 274 kts | 85° |
| 2026-05-05 11:50 | 51.49221 | 5.75137 | 8764 ft | 277 kts | 84° |
| 2026-05-05 11:51 | 51.49490 | 5.79236 | 9677 ft | 281 kts | 83° |
| 2026-05-05 11:51 | 51.49640 | 5.81341 | 10094 ft | 282 kts | 83° |
| 2026-05-05 11:51 | 51.49879 | 5.84543 | 10425 ft | 297 kts | 83° |
| 2026-05-05 11:51 | 51.50139 | 5.87911 | 10676 ft | 311 kts | 82° |
| 2026-05-05 11:52 | 51.50414 | 5.91429 | 10947 ft | 324 kts | 82° |
| 2026-05-05 11:52 | 51.50700 | 5.95048 | 11436 ft | 328 kts | 82° |
| 2026-05-05 11:52 | 51.50989 | 5.98689 | 11960 ft | 330 kts | 82° |
| 2026-05-05 11:52 | 51.51283 | 6.02354 | 12494 ft | 331 kts | 81° |
| 2026-05-05 11:53 | 51.51952 | 6.05893 | 12943 ft | 333 kts | 68° |
| 2026-05-05 11:53 | 51.52476 | 6.09530 | 13393 ft | 337 kts | 84° |
| 2026-05-05 11:53 | 51.52608 | 6.13299 | 13846 ft | 339 kts | 83° |
| 2026-05-05 11:53 | 51.53346 | 6.16901 | 14177 ft | 345 kts | 62° |
| 2026-05-05 11:54 | 51.54646 | 6.20239 | 14219 ft | 360 kts | 56° |
| 2026-05-05 11:54 | 51.56075 | 6.23625 | 14250 ft | 372 kts | 56° |
| 2026-05-05 11:54 | 51.57536 | 6.27094 | 14545 ft | 376 kts | 56° |
| 2026-05-05 11:54 | 51.58983 | 6.30561 | 14788 ft | 372 kts | 57° |
| 2026-05-05 11:55 | 51.60428 | 6.34073 | 14906 ft | 381 kts | 57° |
| 2026-05-05 11:55 | 51.61875 | 6.37659 | 14940 ft | 381 kts | 58° |
| 2026-05-05 11:55 | 51.63279 | 6.41204 | 14968 ft | 381 kts | 58° |
| 2026-05-05 11:55 | 51.64686 | 6.44817 | 14973 ft | 381 kts | 58° |
| 2026-05-05 11:56 | 51.66081 | 6.48448 | 14974 ft | 381 kts | 59° |
| 2026-05-05 11:56 | 51.67463 | 6.52084 | 14975 ft | 381 kts | 59° |
| 2026-05-05 11:56 | 51.68859 | 6.55795 | 14975 ft | 393 kts | 59° |
| 2026-05-05 11:56 | 51.70287 | 6.59630 | 14983 ft | 404 kts | 59° |
| 2026-05-05 11:57 | 51.71730 | 6.63530 | 14982 ft | 406 kts | 59° |
| 2026-05-05 11:57 | 51.73171 | 6.67445 | 14982 ft | 407 kts | 60° |
| 2026-05-05 11:57 | 51.74612 | 6.71381 | 14985 ft | 408 kts | 60° |
| 2026-05-05 11:57 | 51.76050 | 6.75324 | 14979 ft | 408 kts | 60° |
| 2026-05-05 11:58 | 51.77484 | 6.79272 | 14974 ft | 408 kts | 60° |
| 2026-05-05 11:58 | 51.78919 | 6.83230 | 14971 ft | 409 kts | 60° |
| 2026-05-05 11:58 | 51.80352 | 6.87196 | 14971 ft | 408 kts | 60° |
| 2026-05-05 11:58 | 51.81780 | 6.91160 | 14968 ft | 408 kts | 60° |
| 2026-05-05 11:59 | 51.83208 | 6.95134 | 14970 ft | 409 kts | 60° |
| 2026-05-05 11:59 | 51.84636 | 6.99114 | 14968 ft | 409 kts | 60° |
| 2026-05-05 11:59 | 51.86060 | 7.03092 | 14970 ft | 408 kts | 60° |
| 2026-05-05 11:59 | 51.87481 | 7.07068 | 14973 ft | 408 kts | 60° |
| 2026-05-05 12:00 | 51.88899 | 7.11043 | 14972 ft | 409 kts | 60° |
| 2026-05-05 12:00 | 51.90321 | 7.15035 | 14973 ft | 409 kts | 60° |
| 2026-05-05 12:00 | 51.91743 | 7.19034 | 14971 ft | 410 kts | 60° |
| 2026-05-05 12:00 | 51.93162 | 7.23033 | 14972 ft | 410 kts | 60° |
| 2026-05-05 12:01 | 51.94583 | 7.27043 | 14977 ft | 411 kts | 60° |
| 2026-05-05 12:01 | 51.96006 | 7.31067 | 14987 ft | 412 kts | 60° |
| 2026-05-05 12:01 | 51.97431 | 7.35102 | 14986 ft | 412 kts | 60° |
| 2026-05-05 12:01 | 51.98853 | 7.39136 | 14981 ft | 412 kts | 60° |
| 2026-05-05 12:02 | 52.00273 | 7.43173 | 14981 ft | 412 kts | 60° |
| 2026-05-05 12:02 | 52.01694 | 7.47221 | 14983 ft | 413 kts | 60° |
| 2026-05-05 12:02 | 52.03113 | 7.51272 | 14981 ft | 413 kts | 60° |
| 2026-05-05 12:02 | 52.04532 | 7.55326 | 14985 ft | 413 kts | 60° |
| 2026-05-05 12:03 | 52.05950 | 7.59384 | 14989 ft | 413 kts | 60° |
| 2026-05-05 12:03 | 52.07365 | 7.63441 | 14996 ft | 413 kts | 60° |
| 2026-05-05 12:03 | 52.08779 | 7.67505 | 15006 ft | 413 kts | 60° |
| 2026-05-05 12:03 | 52.10192 | 7.71569 | 14999 ft | 412 kts | 60° |
| 2026-05-05 12:04 | 52.11598 | 7.75624 | 14991 ft | 412 kts | 60° |
| 2026-05-05 12:04 | 52.13008 | 7.79691 | 14995 ft | 413 kts | 60° |
| 2026-05-05 12:04 | 52.14420 | 7.83770 | 14988 ft | 414 kts | 60° |
| 2026-05-05 12:04 | 52.15828 | 7.87847 | 14986 ft | 413 kts | 61° |
| 2026-05-05 12:05 | 52.17236 | 7.91926 | 14988 ft | 408 kts | 61° |
| 2026-05-05 12:05 | 52.18576 | 7.95816 | 14990 ft | 380 kts | 61° |
| 2026-05-05 12:05 | 52.19843 | 7.99500 | 14995 ft | 368 kts | 61° |
| 2026-05-05 12:05 | 52.21059 | 8.03042 | 14993 ft | 350 kts | 61° |
| 2026-05-05 12:06 | 52.22241 | 8.06489 | 14987 ft | 350 kts | 61° |
| 2026-05-05 12:06 | 52.23446 | 8.10009 | 14594 ft | 360 kts | 61° |
| 2026-05-05 12:06 | 52.24656 | 8.13557 | 14163 ft | 353 kts | 61° |
| 2026-05-05 12:06 | 52.25824 | 8.16984 | 13878 ft | 339 kts | 61° |
| 2026-05-05 12:07 | 52.26957 | 8.20310 | 13287 ft | 333 kts | 61° |
| 2026-05-05 12:07 | 52.28079 | 8.23605 | 12642 ft | 330 kts | 61° |
| 2026-05-05 12:07 | 52.29189 | 8.26869 | 11996 ft | 327 kts | 61° |
| 2026-05-05 12:07 | 52.30275 | 8.30064 | 11362 ft | 325 kts | 61° |
| 2026-05-05 12:08 | 52.31351 | 8.33232 | 11077 ft | 311 kts | 61° |
| 2026-05-05 12:08 | 52.32338 | 8.36269 | 10891 ft | 294 kts | 68° |
| 2026-05-05 12:08 | 52.32899 | 8.39414 | 10489 ft | 287 kts | 78° |
| 2026-05-05 12:08 | 52.33296 | 8.42607 | 9964 ft | 285 kts | 80° |
| 2026-05-05 12:09 | 52.33658 | 8.45783 | 9393 ft | 284 kts | 81° |
| 2026-05-05 12:09 | 52.34016 | 8.48948 | 8824 ft | 282 kts | 80° |
| 2026-05-05 12:09 | 52.34376 | 8.52087 | 8253 ft | 280 kts | 80° |
| 2026-05-05 12:09 | 52.34749 | 8.55209 | 7692 ft | 279 kts | 80° |
| 2026-05-05 12:10 | 52.35130 | 8.58309 | 7121 ft | 277 kts | 79° |
| 2026-05-05 12:10 | 52.35519 | 8.61381 | 6589 ft | 275 kts | 79° |
| 2026-05-05 12:10 | 52.35912 | 8.64418 | 5890 ft | 272 kts | 79° |
| 2026-05-05 12:10 | 52.36306 | 8.67417 | 5181 ft | 268 kts | 78° |
| 2026-05-05 12:11 | 52.36698 | 8.70380 | 4511 ft | 266 kts | 78° |
| 2026-05-05 12:11 | 52.37089 | 8.73306 | 3997 ft | 261 kts | 78° |
| 2026-05-05 12:11 | 52.37476 | 8.76183 | 3496 ft | 257 kts | 77° |
| 2026-05-05 12:11 | 52.37862 | 8.79022 | 3167 ft | 255 kts | 77° |
| 2026-05-05 12:12 | 52.38244 | 8.81838 | 3062 ft | 251 kts | 77° |
| 2026-05-05 12:12 | 52.38624 | 8.84626 | 3018 ft | 251 kts | 77° |
| 2026-05-05 12:12 | 52.39005 | 8.87418 | 3007 ft | 252 kts | 77° |
| 2026-05-05 12:12 | 52.39381 | 8.90176 | 2998 ft | 252 kts | 77° |
| 2026-05-05 12:13 | 52.39761 | 8.92971 | 2995 ft | 251 kts | 77° |
| 2026-05-05 12:13 | 52.40140 | 8.95765 | 2989 ft | 252 kts | 77° |
| 2026-05-05 12:13 | 52.40519 | 8.98569 | 2914 ft | 251 kts | 77° |
| 2026-05-05 12:13 | 52.40892 | 9.01341 | 2639 ft | 248 kts | 77° |
| 2026-05-05 12:14 | 52.41259 | 9.04097 | 2278 ft | 249 kts | 77° |
| 2026-05-05 12:14 | 52.41623 | 9.06839 | 2140 ft | 243 kts | 77° |
| 2026-05-05 12:14 | 52.41984 | 9.09538 | 2112 ft | 243 kts | 77° |
| 2026-05-05 12:14 | 52.42345 | 9.12216 | 2062 ft | 234 kts | 77° |
| 2026-05-05 12:15 | 52.42668 | 9.14641 | 2032 ft | 203 kts | 76° |
| 2026-05-05 12:15 | 52.42951 | 9.16785 | 2035 ft | 186 kts | 77° |
| 2026-05-05 12:15 | 52.43220 | 9.18846 | 2075 ft | 178 kts | 77° |
| 2026-05-05 12:15 | 52.43480 | 9.20816 | 2100 ft | 180 kts | 76° |
| 2026-05-05 12:16 | 52.43766 | 9.22801 | 2090 ft | 178 kts | 70° |
| 2026-05-05 12:16 | 52.44192 | 9.24711 | 2073 ft | 174 kts | 78° |
| 2026-05-05 12:16 | 52.44312 | 9.26595 | 2043 ft | 164 kts | 84° |
| 2026-05-05 12:16 | 52.44416 | 9.28336 | 1873 ft | 147 kts | 81° |
| 2026-05-05 12:17 | 52.44563 | 9.29980 | 1649 ft | 143 kts | 80° |
| 2026-05-05 12:17 | 52.44714 | 9.31556 | 1431 ft | 138 kts | 80° |
| 2026-05-05 12:17 | 52.44856 | 9.33132 | 1243 ft | 141 kts | 80° |
| 2026-05-05 12:17 | 52.45004 | 9.34720 | 1061 ft | 142 kts | 79° |
| 2026-05-05 12:18 | 52.45151 | 9.36329 | 892 ft | 143 kts | 78° |
| 2026-05-05 12:18 | 52.45307 | 9.37952 | 675 ft | 145 kts | 79° |
| 2026-05-05 12:18 | 52.45453 | 9.39584 | 460 ft | 145 kts | 80° |
| 2026-05-05 12:18 | 52.45594 | 9.41209 | 271 ft | 142 kts | 80° |
| 2026-05-05 12:19 | 52.45734 | 9.42719 | 191 ft | 107 kts | 81° |
| 2026-05-05 12:19 | 52.45802 | 9.43477 | 182 ft | 31 kts | 82° |
| 2026-05-05 12:19 | 52.45822 | 9.43715 | 181 ft | 11 kts | 84° |
| 2026-05-05 12:19 | 52.45828 | 9.43808 | 180 ft | 14 kts | 81° |
| 2026-05-05 12:20 | 52.45849 | 9.43989 | 181 ft | 14 kts | 68° |
| 2026-05-05 12:20 | 52.45916 | 9.44030 | 183 ft | 15 kts | 352° |
| 2026-05-05 12:20 | 52.46010 | 9.44002 | 183 ft | 12 kts | 344° |
| 2026-05-05 12:20 | 52.46042 | 9.43948 | 183 ft | 3 kts | 287° |
| 2026-05-05 12:21 | 52.46038 | 9.43874 | 183 ft | 14 kts | 262° |
| 2026-05-05 12:21 | 52.46011 | 9.43583 | 183 ft | 30 kts | 261° |
| 2026-05-05 12:21 | 52.46000 | 9.43297 | 183 ft | 19 kts | 289° |
| 2026-05-05 12:21 | 52.46057 | 9.43216 | 183 ft | 0 kts | 313° |
| 2026-05-05 12:22 | 52.46064 | 9.43180 | 183 ft | 1 kts | 277° |
| 2026-05-05 12:22 | 52.46063 | 9.43166 | 183 ft | 0 kts | 264° |